createdAt,value
2023-01-13T00:00:07.161Z,93725.30
2023-01-13T00:01:09.110Z,93726.03
2023-01-13T00:01:42.606Z,93725.10
2023-01-13T00:02:16.135Z,93723.73
2023-01-13T00:02:49.606Z,93718.74
2023-01-13T00:03:23.062Z,93721.34
2023-01-13T00:03:57.264Z,93717.52
2023-01-13T00:04:31.928Z,93714.10
2023-01-13T00:05:06.230Z,93717.00
2023-01-13T00:05:39.625Z,93719.73
2023-01-13T00:06:16.160Z,93719.48
2023-01-13T00:06:49.487Z,93715.55
2023-01-13T00:07:22.980Z,93716.37
2023-01-13T00:07:56.423Z,93718.15
2023-01-13T00:08:30.325Z,93714.46
2023-01-13T00:09:03.949Z,93715.95
2023-01-13T00:09:37.263Z,93716.47
2023-01-13T00:10:11.862Z,93718.11
2023-01-13T00:10:48.603Z,93718.77
2023-01-13T00:11:22.953Z,93719.02
2023-01-13T00:11:56.492Z,93723.33
2023-01-13T00:12:29.899Z,93725.30
2023-01-13T00:13:05.367Z,93720.51
2023-01-13T00:13:39.072Z,93709.11
2023-01-13T00:14:12.388Z,93719.77
2023-01-13T00:14:46.128Z,93720.56
2023-01-13T00:15:19.598Z,93717.31
2023-01-13T00:16:00.758Z,93718.69
2023-01-13T00:16:34.405Z,93715.64
2023-01-13T00:17:07.810Z,93715.90
2023-01-13T00:17:41.135Z,93721.88
2023-01-13T00:18:14.491Z,93722.56
2023-01-13T00:18:48.923Z,93725.16
2023-01-13T00:19:22.390Z,93727.59
2023-01-13T00:19:56.654Z,93722.95
2023-01-13T00:20:30.061Z,93721.83
2023-01-13T00:21:08.920Z,93726.00
2023-01-13T00:21:42.430Z,93715.23
2023-01-13T00:22:15.789Z,93723.67
2023-01-13T00:22:49.232Z,93722.93
2023-01-13T00:23:22.586Z,93725.51
2023-01-13T00:23:56.116Z,93728.36
2023-01-13T00:24:29.645Z,93725.31
2023-01-13T00:25:04.677Z,93721.48
2023-01-13T00:25:38.051Z,93725.46
2023-01-13T00:26:17.294Z,93724.41
2023-01-13T00:26:50.751Z,93721.27
2023-01-13T00:27:25.133Z,93713.03
2023-01-13T00:27:58.483Z,93719.84
2023-01-13T00:28:32.366Z,93716.64
2023-01-13T00:29:05.898Z,93713.81
2023-01-13T00:29:39.367Z,93711.59
2023-01-13T00:30:13.265Z,93712.19
2023-01-13T00:30:49.444Z,93712.32
2023-01-13T00:31:22.928Z,93706.57
2023-01-13T00:31:56.578Z,93703.36
2023-01-13T00:32:30.246Z,93703.46
2023-01-13T00:33:03.875Z,93702.17
2023-01-13T00:33:38.547Z,93697.48
2023-01-13T00:34:11.928Z,93698.80
2023-01-13T00:34:48.338Z,93694.02
2023-01-13T00:35:21.957Z,93690.71
2023-01-13T00:35:59.774Z,93687.04
2023-01-13T00:36:33.313Z,93684.80
2023-01-13T00:37:06.708Z,93684.48
2023-01-13T00:37:41.352Z,93685.11
2023-01-13T00:38:14.763Z,93685.45
2023-01-13T00:38:48.831Z,93688.69
2023-01-13T00:39:22.301Z,93691.56
2023-01-13T00:39:55.762Z,93686.69
2023-01-13T00:40:29.268Z,93687.44
2023-01-13T00:41:08.641Z,93685.50
2023-01-13T00:42:00.553Z,93698.52
2023-01-13T00:42:52.634Z,93699.27
2023-01-13T00:43:27.482Z,93701.41
2023-01-13T00:44:00.843Z,93703.81
2023-01-13T00:44:34.263Z,93702.75
2023-01-13T00:45:07.964Z,93700.46
2023-01-13T00:45:41.375Z,93696.52
2023-01-13T00:46:17.932Z,93698.95
2023-01-13T00:46:51.503Z,93699.45
2023-01-13T00:47:24.982Z,93698.04
2023-01-13T00:47:58.448Z,93697.79
2023-01-13T00:48:32.739Z,93699.27
2023-01-13T00:49:06.161Z,93695.54
2023-01-13T00:49:39.591Z,93701.67
2023-01-13T00:50:13.085Z,93707.27
2023-01-13T00:50:46.992Z,93701.04
2023-01-13T00:51:21.901Z,93704.82
2023-01-13T00:51:55.318Z,93707.70
2023-01-13T00:52:28.877Z,93700.92
2023-01-13T00:53:02.585Z,93701.86
2023-01-13T00:53:39.237Z,93700.27
2023-01-13T00:54:12.595Z,93706.72
2023-01-13T00:54:45.968Z,93696.85
2023-01-13T00:55:19.393Z,93706.24
2023-01-13T00:56:02.281Z,93700.48
2023-01-13T00:56:40.963Z,93703.14
2023-01-13T00:57:15.611Z,93699.88
2023-01-13T00:57:49.026Z,93703.86
2023-01-13T00:58:24.905Z,93704.55
2023-01-13T00:58:58.980Z,93706.91
2023-01-13T00:59:32.482Z,93705.72
2023-01-13T01:00:07.537Z,93702.04
2023-01-13T01:00:42.292Z,93702.60
2023-01-13T01:01:19.462Z,93704.91
2023-01-13T01:01:53.108Z,93703.87
2023-01-13T01:02:26.637Z,93699.40
2023-01-13T01:03:00.305Z,93701.10
2023-01-13T01:03:35.335Z,93695.34
2023-01-13T01:04:08.900Z,93694.98
2023-01-13T01:04:42.288Z,93695.38
2023-01-13T01:05:15.681Z,93700.96
2023-01-13T01:05:49.037Z,93700.36
2023-01-13T01:06:25.604Z,93694.85
2023-01-13T01:06:59.076Z,93691.62
2023-01-13T01:07:32.473Z,93692.06
2023-01-13T01:08:06.198Z,93693.94
2023-01-13T01:08:40.238Z,93696.46
2023-01-13T01:09:15.526Z,93694.79
2023-01-13T01:09:50.143Z,93691.23
2023-01-13T01:10:23.585Z,93695.92
2023-01-13T01:11:08.179Z,93696.73
2023-01-13T01:11:42.372Z,93693.41
2023-01-13T01:12:15.694Z,93695.41
2023-01-13T01:12:52.071Z,93692.16
2023-01-13T01:13:28.449Z,93696.77
2023-01-13T01:14:03.708Z,93688.59
2023-01-13T01:14:37.632Z,93693.30
2023-01-13T01:15:11.631Z,93695.32
2023-01-13T01:15:45.065Z,93694.91
2023-01-13T01:16:21.429Z,93692.64
2023-01-13T01:16:54.975Z,93686.17
2023-01-13T01:17:28.648Z,93687.47
2023-01-13T01:18:02.032Z,93692.30
2023-01-13T01:18:37.405Z,93689.39
2023-01-13T01:19:10.907Z,93686.87
2023-01-13T01:19:44.309Z,93685.16
2023-01-13T01:20:17.857Z,93688.27
2023-01-13T01:20:51.333Z,93676.55
2023-01-13T01:21:26.671Z,93682.15
2023-01-13T01:22:00.213Z,93684.20
2023-01-13T01:22:33.690Z,93684.20
2023-01-13T01:23:07.030Z,93685.58
2023-01-13T01:23:41.550Z,93681.81
2023-01-13T01:24:16.798Z,93679.92
2023-01-13T01:24:50.197Z,93679.85
2023-01-13T01:25:23.608Z,93687.11
2023-01-13T01:26:09.711Z,93687.95
2023-01-13T01:26:43.134Z,93681.45
2023-01-13T01:27:16.566Z,93686.70
2023-01-13T01:27:50.081Z,93683.61
2023-01-13T01:28:23.554Z,93680.77
2023-01-13T01:28:57.374Z,93684.50
2023-01-13T01:29:30.949Z,93685.77
2023-01-13T01:30:04.762Z,93685.71
2023-01-13T01:30:39.711Z,93697.20
2023-01-13T01:31:16.272Z,93689.92
2023-01-13T01:31:49.790Z,93687.36
2023-01-13T01:32:23.204Z,93689.16
2023-01-13T01:32:57.570Z,93685.48
2023-01-13T01:33:31.010Z,93681.52
2023-01-13T01:34:04.514Z,93681.86
2023-01-13T01:34:39.436Z,93684.98
2023-01-13T01:35:13.103Z,93688.02
2023-01-13T01:35:46.851Z,93689.02
2023-01-13T01:36:21.921Z,93684.52
2023-01-13T01:36:55.324Z,93682.81
2023-01-13T01:37:28.732Z,93688.89
2023-01-13T01:38:02.156Z,93685.40
2023-01-13T01:38:35.736Z,93682.39
2023-01-13T01:39:10.967Z,93690.43
2023-01-13T01:39:44.339Z,93686.88
2023-01-13T01:40:18.103Z,93691.74
2023-01-13T01:40:51.664Z,93690.14
2023-01-13T01:41:28.913Z,93692.48
2023-01-13T01:42:21.793Z,93687.50
2023-01-13T01:43:13.953Z,93688.97
2023-01-13T01:44:04.384Z,93692.23
2023-01-13T01:44:43.465Z,93691.38
2023-01-13T01:45:24.543Z,93694.23
2023-01-13T01:45:57.816Z,93689.23
2023-01-13T01:46:41.763Z,93689.99
2023-01-13T01:47:18.713Z,93684.55
2023-01-13T01:47:57.829Z,93685.42
2023-01-13T01:48:38.203Z,93686.55
2023-01-13T01:49:15.241Z,93686.20
2023-01-13T01:49:49.377Z,93680.71
2023-01-13T01:50:23.824Z,93681.17
2023-01-13T01:50:57.564Z,93678.25
2023-01-13T01:51:36.003Z,93676.77
2023-01-13T01:52:35.115Z,93672.83
2023-01-13T01:53:17.841Z,93671.23
2023-01-13T01:53:52.936Z,93671.95
2023-01-13T01:54:37.411Z,93677.73
2023-01-13T01:55:19.330Z,93670.60
2023-01-13T01:55:52.778Z,93673.96
2023-01-13T01:56:26.258Z,93670.34
2023-01-13T01:57:00.045Z,93673.22
2023-01-13T01:58:02.340Z,93665.52
2023-01-13T01:58:47.635Z,93663.02
2023-01-13T01:59:21.281Z,93662.43
2023-01-13T01:59:55.340Z,93662.84
2023-01-13T02:00:30.052Z,93660.23
2023-01-13T02:01:03.970Z,93659.30
2023-01-13T02:01:39.398Z,93662.04
2023-01-13T02:02:13.253Z,93667.11
2023-01-13T02:02:49.999Z,93671.02
2023-01-13T02:03:23.726Z,93674.10
2023-01-13T02:04:02.219Z,93671.23
2023-01-13T02:04:40.376Z,93667.23
2023-01-13T02:05:14.214Z,93671.12
2023-01-13T02:05:47.793Z,93669.81
2023-01-13T02:06:21.548Z,93667.66
2023-01-13T02:06:56.975Z,93668.05
2023-01-13T02:07:33.637Z,93666.34
2023-01-13T02:08:09.101Z,93670.33
2023-01-13T02:08:42.474Z,93668.12
2023-01-13T02:09:16.150Z,93674.39
2023-01-13T02:09:50.161Z,93671.90
2023-01-13T02:10:27.762Z,93666.66
2023-01-13T02:11:01.190Z,93666.52
2023-01-13T02:11:54.784Z,93669.05
2023-01-13T02:12:32.759Z,93664.16
2023-01-13T02:13:10.690Z,93664.14
2023-01-13T02:13:44.145Z,93665.68
2023-01-13T02:14:17.614Z,93669.46
2023-01-13T02:14:50.984Z,93664.83
2023-01-13T02:15:29.743Z,93661.08
2023-01-13T02:16:13.141Z,93662.01
2023-01-13T02:17:10.754Z,93655.03
2023-01-13T02:18:21.327Z,93658.37
2023-01-13T02:19:15.793Z,93659.83
2023-01-13T02:19:58.179Z,93661.57
2023-01-13T02:20:59.966Z,93662.23
2023-01-13T02:22:00.983Z,93663.79
2023-01-13T02:22:49.231Z,93664.18
2023-01-13T02:24:19.143Z,93667.40
2023-01-13T02:25:28.343Z,93665.48
2023-01-13T02:26:17.223Z,93664.40
2023-01-13T02:27:18.620Z,93661.73
2023-01-13T02:28:25.334Z,93661.24
2023-01-13T02:29:26.546Z,93656.41
2023-01-13T02:30:47.909Z,93661.31
2023-01-13T02:31:39.607Z,93654.09
2023-01-13T02:32:22.515Z,93649.64
2023-01-13T02:33:20.735Z,93649.27
2023-01-13T02:34:31.213Z,93656.59
2023-01-13T02:35:08.555Z,93650.36
2023-01-13T02:35:56.806Z,93650.77
2023-01-13T02:36:36.345Z,93651.27
2023-01-13T02:37:19.337Z,93652.08
2023-01-13T02:37:54.329Z,93647.60
2023-01-13T02:38:39.932Z,93646.81
2023-01-13T02:39:22.460Z,93650.41
2023-01-13T02:40:03.255Z,93647.95
2023-01-13T02:40:51.245Z,93640.59
2023-01-13T02:42:09.767Z,93638.64
2023-01-13T02:43:21.251Z,93635.89
2023-01-13T02:44:08.119Z,93636.86
2023-01-13T02:45:05.429Z,93629.70
2023-01-13T02:46:03.538Z,93626.40
2023-01-13T02:46:49.512Z,93637.67
2023-01-13T02:47:26.740Z,93632.02
2023-01-13T02:48:05.204Z,93630.33
2023-01-13T02:48:41.858Z,93627.08
2023-01-13T02:50:54.168Z,93625.73
2023-01-13T02:51:30.953Z,93614.55
2023-01-13T02:52:16.302Z,93618.13
2023-01-13T02:53:00.960Z,93616.58
2023-01-13T02:53:39.568Z,93618.33
2023-01-13T02:54:18.494Z,93618.81
2023-01-13T02:54:59.545Z,93617.80
2023-01-13T02:55:36.146Z,93619.78
2023-01-13T02:56:11.403Z,93618.08
2023-01-13T02:56:47.890Z,93615.67
2023-01-13T02:57:23.027Z,93614.94
2023-01-13T02:58:00.126Z,93610.27
2023-01-13T02:58:36.669Z,93611.73
2023-01-13T02:59:11.550Z,93607.59
2023-01-13T02:59:45.441Z,93612.13
2023-01-13T03:00:20.351Z,93613.40
2023-01-13T03:00:53.976Z,93612.48
2023-01-13T03:01:28.100Z,93611.31
2023-01-13T03:02:06.682Z,93607.33
2023-01-13T03:02:40.407Z,93615.17
2023-01-13T03:03:14.672Z,93607.06
2023-01-13T03:03:50.184Z,93607.06
2023-01-13T03:05:36.887Z,93609.88
2023-01-13T03:06:14.334Z,93613.07
2023-01-13T03:06:59.923Z,93615.34
2023-01-13T03:08:09.275Z,93621.17
2023-01-13T03:09:17.998Z,93617.39
2023-01-13T03:10:19.058Z,93623.46
2023-01-13T03:11:04.717Z,93619.20
2023-01-13T03:12:04.431Z,93621.47
2023-01-13T03:12:51.272Z,93626.60
2023-01-13T03:13:46.210Z,93627.70
2023-01-13T03:14:26.474Z,93614.34
2023-01-13T03:15:52.040Z,93620.20
2023-01-13T03:17:02.760Z,93617.02
2023-01-13T03:17:44.541Z,93613.20
2023-01-13T03:18:38.208Z,93613.16
2023-01-13T03:19:18.124Z,93613.91
2023-01-13T03:20:06.846Z,93617.91
2023-01-13T03:20:55.044Z,93615.27
2023-01-13T03:21:44.433Z,93617.11
2023-01-13T03:22:41.499Z,93620.54
2023-01-13T03:23:29.936Z,93620.16
2023-01-13T03:24:07.256Z,93625.82
2023-01-13T03:24:53.415Z,93624.67
2023-01-13T03:25:33.354Z,93628.32
2023-01-13T03:26:16.418Z,93623.88
2023-01-13T03:27:13.168Z,93620.06
2023-01-13T03:28:04.214Z,93622.46
2023-01-13T03:28:41.544Z,93619.91
2023-01-13T03:29:17.523Z,93617.05
2023-01-13T03:29:55.300Z,93623.55
2023-01-13T03:30:33.561Z,93620.57
2023-01-13T03:31:26.783Z,93619.55
2023-01-13T03:32:07.418Z,93616.07
2023-01-13T03:32:49.369Z,93615.79
2023-01-13T03:33:37.710Z,93615.87
2023-01-13T03:34:17.534Z,93619.79
2023-01-13T03:34:54.962Z,93616.57
2023-01-13T03:35:33.620Z,93617.27
2023-01-13T03:36:11.787Z,93618.50
2023-01-13T03:36:49.882Z,93614.04
2023-01-13T03:37:29.626Z,93622.25
2023-01-13T03:38:13.821Z,93617.94
2023-01-13T03:38:53.375Z,93620.21
2023-01-13T03:39:32.445Z,93615.73
2023-01-13T03:40:32.799Z,93611.98
2023-01-13T03:41:43.665Z,93611.01
2023-01-13T03:42:30.852Z,93607.34
2023-01-13T03:43:27.963Z,93604.64
2023-01-13T03:44:25.263Z,93608.33
2023-01-13T03:45:14.566Z,93606.83
2023-01-13T03:45:55.242Z,93604.31
2023-01-13T03:46:37.576Z,93605.91
2023-01-13T03:47:26.950Z,93609.31
2023-01-13T03:48:06.283Z,93601.80
2023-01-13T03:48:44.070Z,93601.50
2023-01-13T03:49:24.140Z,93605.40
2023-01-13T03:50:19.930Z,93603.70
2023-01-13T03:50:58.853Z,93606.23
2023-01-13T03:51:36.252Z,93597.30
2023-01-13T03:52:15.862Z,93596.09
2023-01-13T03:53:15.441Z,93598.77
2023-01-13T03:53:56.056Z,93596.91
2023-01-13T03:54:34.280Z,93598.40
2023-01-13T03:55:15.470Z,93596.22
2023-01-13T03:55:52.830Z,93596.93
2023-01-13T03:56:55.227Z,93594.23
2023-01-13T03:57:33.000Z,93592.86
2023-01-13T03:58:15.147Z,93591.52
2023-01-13T03:58:51.440Z,93595.44
2023-01-13T03:59:31.757Z,93595.93
2023-01-13T04:00:09.717Z,93597.55
2023-01-13T04:01:01.611Z,93599.21
2023-01-13T04:02:00.334Z,93593.30
2023-01-13T04:02:56.407Z,93592.16
2023-01-13T04:03:36.582Z,93591.58
2023-01-13T04:04:16.935Z,93589.83
2023-01-13T04:05:03.249Z,93589.88
2023-01-13T04:05:42.420Z,93589.73
2023-01-13T04:06:23.941Z,93590.58
2023-01-13T04:07:12.419Z,93591.96
2023-01-13T04:08:04.690Z,93587.70
2023-01-13T04:08:46.735Z,93585.48
2023-01-13T04:09:29.145Z,93590.52
2023-01-13T04:10:07.369Z,93585.62
2023-01-13T04:10:49.624Z,93583.52
2023-01-13T04:11:42.240Z,93583.95
2023-01-13T04:12:52.485Z,93583.84
2023-01-13T04:13:30.620Z,93581.83
2023-01-13T04:14:07.013Z,93580.69
2023-01-13T04:14:41.882Z,93588.56
2023-01-13T04:15:21.806Z,93588.70
2023-01-13T04:15:55.287Z,93591.52
2023-01-13T04:16:28.990Z,93588.61
2023-01-13T04:17:05.464Z,93590.38
2023-01-13T04:17:39.560Z,93591.61
2023-01-13T04:18:13.049Z,93592.52
2023-01-13T04:18:50.302Z,93584.75
2023-01-13T04:19:23.820Z,93586.84
2023-01-13T04:19:57.344Z,93586.33
2023-01-13T04:20:31.013Z,93587.33
2023-01-13T04:21:05.361Z,93589.19
2023-01-13T04:21:38.895Z,93584.76
2023-01-13T04:22:12.342Z,93585.60
2023-01-13T04:22:45.924Z,93586.33
2023-01-13T04:23:21.714Z,93585.50
2023-01-13T04:23:55.062Z,93584.80
2023-01-13T04:24:40.058Z,93586.23
2023-01-13T04:25:13.572Z,93582.77
2023-01-13T04:25:48.195Z,93583.67
2023-01-13T04:26:24.546Z,93583.54
2023-01-13T04:26:58.395Z,93584.48
2023-01-13T04:27:31.764Z,93585.96
2023-01-13T04:28:05.520Z,93587.84
2023-01-13T04:28:40.860Z,93581.86
2023-01-13T04:29:15.752Z,93579.78
2023-01-13T04:29:49.415Z,93581.77
2023-01-13T04:30:22.809Z,93585.75
2023-01-13T04:30:56.317Z,93579.19
2023-01-13T04:31:29.983Z,93576.71
2023-01-13T04:32:03.885Z,93578.13
2023-01-13T04:32:37.676Z,93583.52
2023-01-13T04:33:12.464Z,93581.91
2023-01-13T04:33:48.427Z,93584.70
2023-01-13T04:34:22.158Z,93582.83
2023-01-13T04:34:55.729Z,93583.81
2023-01-13T04:35:35.953Z,93583.45
2023-01-13T04:36:29.319Z,93582.75
2023-01-13T04:37:08.705Z,93582.39
2023-01-13T04:37:42.647Z,93576.85
2023-01-13T04:38:20.979Z,93578.05
2023-01-13T04:39:00.067Z,93579.88
2023-01-13T04:39:34.184Z,93580.88
2023-01-13T04:40:10.933Z,93579.08
2023-01-13T04:40:45.184Z,93581.71
2023-01-13T04:41:18.812Z,93582.42
2023-01-13T04:41:58.250Z,93576.80
2023-01-13T04:42:31.818Z,93578.11
2023-01-13T04:43:05.331Z,93575.67
2023-01-13T04:43:38.791Z,93576.35
2023-01-13T04:44:12.294Z,93575.73
2023-01-13T04:44:45.830Z,93569.11
2023-01-13T04:45:19.223Z,93577.48
2023-01-13T04:45:52.769Z,93573.19
2023-01-13T04:46:26.388Z,93575.38
2023-01-13T04:46:59.916Z,93571.31
2023-01-13T04:47:33.331Z,93571.98
2023-01-13T04:48:07.121Z,93570.11
2023-01-13T04:48:40.603Z,93567.23
2023-01-13T04:49:14.324Z,93571.34
2023-01-13T04:49:47.960Z,93567.46
2023-01-13T04:50:22.905Z,93571.70
2023-01-13T04:50:56.502Z,93574.83
2023-01-13T04:51:29.943Z,93571.89
2023-01-13T04:52:04.231Z,93571.94
2023-01-13T04:52:38.773Z,93571.65
2023-01-13T04:53:12.360Z,93569.16
2023-01-13T04:53:47.074Z,93571.83
2023-01-13T04:54:21.663Z,93568.93
2023-01-13T04:54:55.070Z,93572.69
2023-01-13T04:55:28.498Z,93578.75
2023-01-13T04:56:02.208Z,93570.41
2023-01-13T04:56:35.990Z,93575.30
2023-01-13T04:57:09.644Z,93578.33
2023-01-13T04:57:43.406Z,93577.73
2023-01-13T04:58:16.887Z,93574.73
2023-01-13T04:58:50.502Z,93578.71
2023-01-13T04:59:25.832Z,93582.55
2023-01-13T04:59:59.355Z,93578.08
2023-01-13T05:00:33.579Z,93581.39
2023-01-13T05:01:07.274Z,93577.73
2023-01-13T05:01:41.213Z,93583.35
2023-01-13T05:02:20.222Z,93582.39
2023-01-13T05:02:53.657Z,93581.83
2023-01-13T05:03:27.006Z,93586.77
2023-01-13T05:04:00.397Z,93575.73
2023-01-13T05:04:33.763Z,93586.20
2023-01-13T05:05:07.614Z,93582.89
2023-01-13T05:05:41.086Z,93588.41
2023-01-13T05:06:14.627Z,93584.31
2023-01-13T05:06:48.003Z,93585.38
2023-01-13T05:07:21.422Z,93586.89
2023-01-13T05:08:01.062Z,93584.89
2023-01-13T05:08:34.993Z,93584.61
2023-01-13T05:09:08.841Z,93577.88
2023-01-13T05:09:42.485Z,93582.27
2023-01-13T05:10:16.285Z,93585.20
2023-01-13T05:10:49.687Z,93585.73
2023-01-13T05:11:42.225Z,93586.62
2023-01-13T05:12:34.047Z,93590.53
2023-01-13T05:13:27.672Z,93588.16
2023-01-13T05:14:21.562Z,93590.30
2023-01-13T05:15:13.432Z,93586.94
2023-01-13T05:16:06.778Z,93584.41
2023-01-13T05:16:59.325Z,93582.16
2023-01-13T05:17:33.273Z,93581.29
2023-01-13T05:18:07.155Z,93575.08
2023-01-13T05:18:40.602Z,93586.23
2023-01-13T05:19:14.086Z,93580.95
2023-01-13T05:19:47.911Z,93581.80
2023-01-13T05:20:21.341Z,93577.98
2023-01-13T05:20:54.881Z,93577.64
2023-01-13T05:21:46.930Z,93581.28
2023-01-13T05:22:39.229Z,93581.44
2023-01-13T05:23:31.617Z,93578.33
2023-01-13T05:24:23.698Z,93585.81
2023-01-13T05:25:15.747Z,93578.69
2023-01-13T05:25:50.409Z,93580.14
2023-01-13T05:26:23.881Z,93586.05
2023-01-13T05:26:57.295Z,93584.27
2023-01-13T05:27:31.889Z,93581.19
2023-01-13T05:28:05.480Z,93586.14
2023-01-13T05:28:38.946Z,93590.45
2023-01-13T05:29:12.580Z,93586.92
2023-01-13T05:29:45.975Z,93582.52
2023-01-13T05:30:25.815Z,93584.86
2023-01-13T05:30:59.372Z,93589.25
2023-01-13T05:31:33.046Z,93590.21
2023-01-13T05:32:08.552Z,93586.63
2023-01-13T05:32:42.275Z,93585.00
2023-01-13T05:33:18.446Z,93588.25
2023-01-13T05:33:52.092Z,93588.48
2023-01-13T05:34:25.630Z,93586.38
2023-01-13T05:34:59.457Z,93585.79
2023-01-13T05:35:32.981Z,93594.64
2023-01-13T05:36:06.786Z,93592.77
2023-01-13T05:36:40.331Z,93588.99
2023-01-13T05:37:14.025Z,93595.23
2023-01-13T05:37:47.636Z,93590.82
2023-01-13T05:38:21.977Z,93596.27
2023-01-13T05:38:55.445Z,93595.68
2023-01-13T05:39:49.052Z,93595.98
2023-01-13T05:40:41.754Z,93600.34
2023-01-13T05:41:33.881Z,93604.03
2023-01-13T05:42:26.856Z,93601.17
2023-01-13T05:43:21.362Z,93605.69
2023-01-13T05:43:54.951Z,93603.55
2023-01-13T05:44:28.578Z,93603.70
2023-01-13T05:45:02.095Z,93607.03
2023-01-13T05:45:35.498Z,93605.73
2023-01-13T05:46:10.444Z,93608.33
2023-01-13T05:46:44.008Z,93608.37
2023-01-13T05:47:17.778Z,93605.52
2023-01-13T05:47:51.414Z,93606.55
2023-01-13T05:48:29.007Z,93605.40
2023-01-13T05:49:02.523Z,93608.34
2023-01-13T05:49:35.976Z,93608.35
2023-01-13T05:50:10.414Z,93609.85
2023-01-13T05:50:44.894Z,93606.29
2023-01-13T05:51:19.945Z,93605.50
2023-01-13T05:51:53.430Z,93605.08
2023-01-13T05:52:26.829Z,93606.77
2023-01-13T05:53:00.459Z,93606.84
2023-01-13T05:53:34.219Z,93606.48
2023-01-13T05:54:07.624Z,93607.38
2023-01-13T05:54:41.490Z,93606.63
2023-01-13T05:55:15.084Z,93605.12
2023-01-13T05:55:49.313Z,93606.24
2023-01-13T05:56:22.799Z,93611.73
2023-01-13T05:56:56.667Z,93608.30
2023-01-13T05:57:30.252Z,93609.67
2023-01-13T05:58:03.950Z,93612.30
2023-01-13T05:58:37.987Z,93610.13
2023-01-13T05:59:14.017Z,93609.61
2023-01-13T05:59:47.377Z,93611.92
2023-01-13T06:00:21.370Z,93611.87
2023-01-13T06:01:00.995Z,93611.56
2023-01-13T06:01:34.651Z,93611.48
2023-01-13T06:02:08.114Z,93610.73
2023-01-13T06:02:41.663Z,93609.54
2023-01-13T06:03:16.928Z,93612.20
2023-01-13T06:03:50.557Z,93611.99
2023-01-13T06:04:24.122Z,93610.60
2023-01-13T06:04:57.785Z,93609.13
2023-01-13T06:05:32.487Z,93607.86
2023-01-13T06:06:09.227Z,93603.36
2023-01-13T06:06:45.511Z,93605.42
2023-01-13T06:07:19.161Z,93604.74
2023-01-13T06:07:52.687Z,93602.23
2023-01-13T06:08:26.958Z,93597.41
2023-01-13T06:09:00.421Z,93603.13
2023-01-13T06:09:34.068Z,93602.85
2023-01-13T06:10:08.327Z,93600.57
2023-01-13T06:10:41.903Z,93603.81
2023-01-13T06:11:15.506Z,93601.48
2023-01-13T06:11:49.486Z,93599.89
2023-01-13T06:12:22.969Z,93599.16
2023-01-13T06:12:56.822Z,93600.27
2023-01-13T06:13:31.295Z,93598.27
2023-01-13T06:14:04.914Z,93599.76
2023-01-13T06:14:41.660Z,93599.52
2023-01-13T06:15:15.353Z,93596.60
2023-01-13T06:15:49.017Z,93598.21
2023-01-13T06:16:22.773Z,93598.63
2023-01-13T06:16:56.291Z,93601.21
2023-01-13T06:17:29.929Z,93604.02
2023-01-13T06:18:05.072Z,93607.95
2023-01-13T06:18:38.784Z,93607.66
2023-01-13T06:19:13.363Z,93607.63
2023-01-13T06:19:46.872Z,93609.21
2023-01-13T06:20:20.889Z,93606.77
2023-01-13T06:20:54.407Z,93605.52
2023-01-13T06:21:27.925Z,93607.66
2023-01-13T06:22:11.181Z,93605.42
2023-01-13T06:22:48.527Z,93608.77
2023-01-13T06:23:22.080Z,93604.73
2023-01-13T06:23:55.874Z,93605.85
2023-01-13T06:24:29.420Z,93603.67
2023-01-13T06:25:04.218Z,93599.92
2023-01-13T06:26:19.504Z,93600.55
2023-01-13T06:26:53.216Z,93603.49
2023-01-13T06:27:26.665Z,93601.50
2023-01-13T06:28:01.039Z,93599.86
2023-01-13T06:28:35.021Z,93595.48
2023-01-13T06:29:10.299Z,93597.94
2023-01-13T06:29:43.967Z,93600.98
2023-01-13T06:30:17.820Z,93600.42
2023-01-13T06:30:56.267Z,93597.66
2023-01-13T06:31:31.803Z,93593.43
2023-01-13T06:32:16.221Z,93596.12
2023-01-13T06:32:53.763Z,93595.20
2023-01-13T06:33:33.400Z,93589.05
2023-01-13T06:34:13.325Z,93590.67
2023-01-13T06:34:53.448Z,93589.77
2023-01-13T06:35:31.985Z,93586.35
2023-01-13T06:36:11.736Z,93587.44
2023-01-13T06:36:52.271Z,93584.95
2023-01-13T06:37:28.574Z,93587.86
2023-01-13T06:38:05.264Z,93587.02
2023-01-13T06:38:42.559Z,93589.94
2023-01-13T06:39:20.237Z,93586.90
2023-01-13T06:39:59.166Z,93589.34
2023-01-13T06:40:32.517Z,93588.82
2023-01-13T06:41:08.846Z,93589.05
2023-01-13T06:42:01.143Z,93586.78
2023-01-13T06:42:55.841Z,93588.36
2023-01-13T06:43:29.464Z,93590.80
2023-01-13T06:44:02.843Z,93590.36
2023-01-13T06:44:36.427Z,93594.65
2023-01-13T06:45:10.407Z,93591.05
2023-01-13T06:45:56.912Z,93593.08
2023-01-13T06:46:30.369Z,93590.01
2023-01-13T06:47:04.441Z,93590.36
2023-01-13T06:47:38.150Z,93588.79
2023-01-13T06:48:11.678Z,93586.88
2023-01-13T06:48:45.097Z,93585.62
2023-01-13T06:49:21.314Z,93586.95
2023-01-13T06:49:54.936Z,93589.41
2023-01-13T06:50:29.175Z,93587.28
2023-01-13T06:51:06.583Z,93588.39
2023-01-13T06:51:39.921Z,93589.91
2023-01-13T06:52:13.510Z,93586.89
2023-01-13T06:52:47.263Z,93586.91
2023-01-13T06:53:21.080Z,93587.52
2023-01-13T06:53:54.587Z,93581.97
2023-01-13T06:54:28.015Z,93585.45
2023-01-13T06:55:01.429Z,93581.67
2023-01-13T06:55:34.995Z,93579.73
2023-01-13T06:56:08.557Z,93581.73
2023-01-13T06:56:42.006Z,93580.52
2023-01-13T06:57:15.463Z,93580.02
2023-01-13T06:57:54.431Z,93580.45
2023-01-13T06:58:27.749Z,93579.17
2023-01-13T06:59:01.767Z,93577.36
2023-01-13T06:59:35.441Z,93575.51
2023-01-13T07:00:11.753Z,93570.56
2023-01-13T07:00:49.852Z,93566.38
2023-01-13T07:01:23.694Z,93568.60
2023-01-13T07:01:57.485Z,93568.55
2023-01-13T07:02:31.285Z,93564.86
2023-01-13T07:03:13.489Z,93566.77
2023-01-13T07:03:47.086Z,93565.63
2023-01-13T07:04:20.475Z,93566.48
2023-01-13T07:04:54.150Z,93566.92
2023-01-13T07:05:27.550Z,93570.67
2023-01-13T07:06:02.412Z,93571.98
2023-01-13T07:06:35.992Z,93575.42
2023-01-13T07:07:09.475Z,93576.55
2023-01-13T07:07:43.448Z,93581.00
2023-01-13T07:08:17.116Z,93580.64
2023-01-13T07:08:50.721Z,93582.49
2023-01-13T07:09:24.187Z,93576.71
2023-01-13T07:09:58.096Z,93576.99
2023-01-13T07:10:32.431Z,93576.52
2023-01-13T07:11:06.395Z,93578.52
2023-01-13T07:11:39.930Z,93578.63
2023-01-13T07:12:13.506Z,93577.71
2023-01-13T07:13:05.449Z,93577.09
2023-01-13T07:14:00.508Z,93579.43
2023-01-13T07:14:52.657Z,93580.52
2023-01-13T07:15:27.316Z,93584.39
2023-01-13T07:16:03.622Z,93585.43
2023-01-13T07:16:37.209Z,93588.41
2023-01-13T07:17:10.842Z,93589.91
2023-01-13T07:17:44.301Z,93587.70
2023-01-13T07:18:17.778Z,93586.70
2023-01-13T07:18:51.258Z,93588.77
2023-01-13T07:19:24.947Z,93585.23
2023-01-13T07:19:58.417Z,93584.55
2023-01-13T07:20:32.146Z,93585.23
2023-01-13T07:21:08.411Z,93584.66
2023-01-13T07:21:41.960Z,93587.14
2023-01-13T07:22:15.429Z,93591.63
2023-01-13T07:22:54.958Z,93591.89
2023-01-13T07:23:31.508Z,93590.20
2023-01-13T07:24:05.308Z,93589.52
2023-01-13T07:24:43.752Z,93585.63
2023-01-13T07:25:17.274Z,93587.67
2023-01-13T07:25:50.869Z,93584.23
2023-01-13T07:26:24.266Z,93586.27
2023-01-13T07:26:58.079Z,93587.46
2023-01-13T07:27:31.538Z,93587.59
2023-01-13T07:28:05.385Z,93585.87
2023-01-13T07:28:39.748Z,93586.06
2023-01-13T07:29:13.378Z,93583.90
2023-01-13T07:29:46.886Z,93584.22
2023-01-13T07:30:20.505Z,93582.48
2023-01-13T07:30:54.195Z,93586.09